createdAt,value
2019-04-22T00:00:55.719Z,66.58
2019-04-22T00:01:58.172Z,65.66
2019-04-22T00:02:58.304Z,67.02
2019-04-22T00:04:00.470Z,67.43
2019-04-22T00:05:05.377Z,67.64
2019-04-22T00:06:16.578Z,68.15
2019-04-22T00:07:17.410Z,68.90
2019-04-22T00:08:17.156Z,68.38
2019-04-22T00:09:17.678Z,68.28
2019-04-22T00:10:21.155Z,68.73
2019-04-22T00:11:18.157Z,68.52
2019-04-22T00:12:22.273Z,68.93
2019-04-22T00:13:22.202Z,69.85
2019-04-22T00:14:14.983Z,70.09
2019-04-22T00:15:10.018Z,70.70
2019-04-22T00:16:14.296Z,70.70
2019-04-22T00:17:23.459Z,71.01
2019-04-22T00:18:22.302Z,71.15
2019-04-22T00:19:20.788Z,73.40
2019-04-22T00:20:16.946Z,74.32
2019-04-22T00:21:19.715Z,74.36
2019-04-22T00:23:20.373Z,75.62
2019-04-22T00:24:17.115Z,74.49
2019-04-22T00:25:19.338Z,76.14
2019-04-22T00:26:16.537Z,75.73
2019-04-22T00:27:20.170Z,75.01
2019-04-22T00:28:19.960Z,74.60
2019-04-22T00:29:37.093Z,77.26
2019-04-22T00:30:16.487Z,76.96
2019-04-22T00:31:15.535Z,75.11
2019-04-22T00:32:14.105Z,75.83
2019-04-22T00:33:13.348Z,75.04
2019-04-22T00:34:09.333Z,75.45
2019-04-22T00:35:13.322Z,76.89
2019-04-22T00:36:16.222Z,75.56
2019-04-22T00:37:17.523Z,74.84
2019-04-22T00:38:17.295Z,75.76
2019-04-22T00:39:21.649Z,77.81
2019-04-22T00:40:23.886Z,76.58
2019-04-22T00:41:25.592Z,77.00
2019-04-22T00:42:14.748Z,77.92
2019-04-22T00:43:19.738Z,76.96
2019-04-22T00:44:21.857Z,76.24
2019-04-22T00:45:24.408Z,75.52
2019-04-22T00:46:23.916Z,77.17
2019-04-22T00:47:23.428Z,78.60
2019-04-22T00:48:22.362Z,78.50
2019-04-22T00:49:59.603Z,77.92
2019-04-22T00:50:24.113Z,77.06
2019-04-22T00:51:36.635Z,77.17
2019-04-22T00:52:16.597Z,76.34
2019-04-22T00:53:22.542Z,75.87
2019-04-22T00:54:15.683Z,76.28
2019-04-22T00:55:23.424Z,77.71
2019-04-22T00:56:30.243Z,76.79
2019-04-22T00:57:15.665Z,77.00
2019-04-22T00:58:16.228Z,77.30
2019-04-22T00:59:20.116Z,77.92
2019-04-22T01:00:21.373Z,77.03
2019-04-22T01:02:22.941Z,77.95
2019-04-22T01:03:19.684Z,78.16
2019-04-22T01:04:25.636Z,77.55
2019-04-22T01:05:21.400Z,77.48
2019-04-22T01:06:17.327Z,79.53
2019-04-22T01:07:21.748Z,78.92
2019-04-22T01:08:21.374Z,82.00
2019-04-22T01:09:19.159Z,80.77
2019-04-22T01:10:19.055Z,80.05
2019-04-22T01:11:22.730Z,79.57
2019-04-22T01:12:19.683Z,80.60
2019-04-22T01:13:19.506Z,81.01
2019-04-22T01:14:14.508Z,79.47
2019-04-22T01:15:15.829Z,78.13
2019-04-22T01:16:20.344Z,81.38
2019-04-22T01:17:17.585Z,81.79
2019-04-22T01:18:11.508Z,81.28
2019-04-22T01:19:12.288Z,78.30
2019-04-22T01:20:43.612Z,79.74
2019-04-22T01:21:37.003Z,80.15
2019-04-22T01:22:19.086Z,78.16
2019-04-22T01:23:11.256Z,77.13
2019-04-22T01:24:14.039Z,77.95
2019-04-22T01:25:14.386Z,75.97
2019-04-22T01:26:13.976Z,75.04
2019-04-22T01:27:08.075Z,73.68
2019-04-22T01:28:06.325Z,73.85
2019-04-22T01:29:05.024Z,74.05
2019-04-22T01:30:03.723Z,74.66
2019-04-22T01:31:00.082Z,75.08
2019-04-22T01:31:51.355Z,75.42
2019-04-22T01:32:53.891Z,78.09
2019-04-22T01:34:05.443Z,74.91
2019-04-22T01:35:05.881Z,74.29
2019-04-22T01:36:10.606Z,77.30
2019-04-22T01:37:07.621Z,78.33
2019-04-22T01:38:08.031Z,77.30
2019-04-22T01:39:15.365Z,76.10
2019-04-22T01:40:17.802Z,76.62
2019-04-22T01:41:16.530Z,78.78
2019-04-22T01:42:10.465Z,79.80
2019-04-22T01:43:18.250Z,80.21
2019-04-22T01:44:35.296Z,78.47
2019-04-22T01:45:19.346Z,79.19
2019-04-22T01:46:23.503Z,79.02
2019-04-22T01:47:21.417Z,80.11
2019-04-22T01:48:17.735Z,79.19
2019-04-22T01:49:16.843Z,79.49
2019-04-22T01:50:24.055Z,77.95
2019-04-22T01:51:12.269Z,78.88
2019-04-22T01:52:15.912Z,80.01
2019-04-22T01:53:24.782Z,77.85
2019-04-22T01:54:22.215Z,80.11
2019-04-22T01:55:25.132Z,79.29
2019-04-22T01:56:20.504Z,78.67
2019-04-22T01:57:10.936Z,79.70
2019-04-22T01:58:11.086Z,78.78
2019-04-22T01:59:12.521Z,78.98
2019-04-22T02:00:05.051Z,79.29
2019-04-22T02:01:22.186Z,78.47
2019-04-22T02:02:16.443Z,79.39
2019-04-22T02:03:22.301Z,78.36
2019-04-22T02:04:17.617Z,78.27
2019-04-22T02:05:18.729Z,76.21
2019-04-22T02:06:28.809Z,74.84
2019-04-22T02:07:16.478Z,74.84
2019-04-22T02:08:28.406Z,73.36
2019-04-22T02:09:24.093Z,71.28
2019-04-22T02:10:26.887Z,70.64
2019-04-22T02:11:17.352Z,70.40
2019-04-22T02:13:20.056Z,69.03
2019-04-22T02:14:19.920Z,69.34
2019-04-22T02:15:17.151Z,68.73
2019-04-22T02:16:15.170Z,68.41
2019-04-22T02:17:17.674Z,68.62
2019-04-22T02:19:22.534Z,68.52
2019-04-22T02:20:19.827Z,69.03
2019-04-22T02:21:13.805Z,68.83
2019-04-22T02:22:17.616Z,68.52
2019-04-22T02:23:42.852Z,68.73
2019-04-22T02:24:18.035Z,69.85
2019-04-22T02:25:15.918Z,68.73
2019-04-22T02:26:16.384Z,69.13
2019-04-22T02:27:24.384Z,69.85
2019-04-22T02:28:26.115Z,70.29
2019-04-22T02:29:17.042Z,70.29
2019-04-22T02:30:13.811Z,70.50
2019-04-22T02:31:25.852Z,70.81
2019-04-22T02:32:27.616Z,70.84
2019-04-22T02:33:48.096Z,71.25
2019-04-22T02:35:35.871Z,71.45
2019-04-22T02:37:21.184Z,71.56
2019-04-22T02:38:34.816Z,71.97
2019-04-22T02:39:20.072Z,72.99
2019-04-22T02:40:17.177Z,72.51
2019-04-22T02:42:14.052Z,72.61
2019-04-22T02:43:34.155Z,71.69
2019-04-22T02:44:26.367Z,71.28
2019-04-22T02:45:28.144Z,70.77
2019-04-22T02:48:34.044Z,70.12
2019-04-22T02:50:36.703Z,69.98
2019-04-22T02:52:26.237Z,69.57
2019-04-22T02:53:58.454Z,68.32
2019-04-22T02:55:25.318Z,68.62
2019-04-22T02:56:27.181Z,68.28
2019-04-22T02:58:32.049Z,67.97
2019-04-22T03:00:35.027Z,68.08
2019-04-22T03:01:29.943Z,68.08
2019-04-22T03:03:33.192Z,68.18
2019-04-22T03:04:20.487Z,67.77
2019-04-22T03:05:33.184Z,67.46
2019-04-22T03:07:18.589Z,65.15
2019-04-22T03:08:23.563Z,65.25
2019-04-22T03:12:23.725Z,65.02
2019-04-22T03:13:29.238Z,63.96
2019-04-22T03:14:38.267Z,64.17
2019-04-22T03:15:15.057Z,64.07
2019-04-22T03:17:25.540Z,64.92
2019-04-22T03:18:34.718Z,65.63
2019-04-22T03:20:14.192Z,65.56
2019-04-22T03:21:18.809Z,66.07
2019-04-22T03:23:38.371Z,65.80
2019-04-22T03:24:25.843Z,65.77
2019-04-22T03:25:51.786Z,64.95
2019-04-22T03:26:30.780Z,65.97
2019-04-22T03:27:16.301Z,65.77
2019-04-22T03:28:31.808Z,65.05
2019-04-22T03:29:17.960Z,65.15
2019-04-22T03:30:47.594Z,64.84
2019-04-22T03:31:34.430Z,65.15
2019-04-22T03:33:36.155Z,64.40
2019-04-22T03:35:09.871Z,64.71
2019-04-22T03:37:00.762Z,63.79
2019-04-22T03:37:45.697Z,62.95
2019-04-22T03:38:20.202Z,62.95
2019-04-22T03:39:45.643Z,63.15
2019-04-22T03:41:48.168Z,62.92
2019-04-22T03:42:31.957Z,61.79
2019-04-22T03:43:33.770Z,61.76
2019-04-22T03:45:26.633Z,60.21
2019-04-22T03:46:21.187Z,61.02
2019-04-22T03:47:32.038Z,61.43
2019-04-22T03:48:17.099Z,61.97
2019-04-22T03:50:25.841Z,61.25
2019-04-22T03:51:42.932Z,61.46
2019-04-22T03:53:36.275Z,61.56
2019-04-22T03:54:32.932Z,61.56
2019-04-22T03:55:23.010Z,61.66
2019-04-22T03:56:56.447Z,61.35
2019-04-22T03:57:44.778Z,61.87
2019-04-22T03:58:11.239Z,61.46
2019-04-22T03:59:28.682Z,61.66
2019-04-22T04:00:26.684Z,60.21
2019-04-22T04:01:30.535Z,60.92
2019-04-22T04:04:27.728Z,60.51
2019-04-22T04:05:33.475Z,60.30
2019-04-22T04:06:43.394Z,60.92
2019-04-22T04:07:38.394Z,60.41
2019-04-22T04:08:30.607Z,60.64
2019-04-22T04:09:24.217Z,61.25
2019-04-22T04:10:30.214Z,60.85
2019-04-22T04:11:29.709Z,60.64
2019-04-22T04:12:25.160Z,61.46
2019-04-22T04:13:33.776Z,61.56
2019-04-22T04:16:21.696Z,61.58
2019-04-22T04:17:26.219Z,61.28
2019-04-22T04:18:18.827Z,61.58
2019-04-22T04:20:32.406Z,61.18
2019-04-22T04:22:30.222Z,62.30
2019-04-22T04:26:26.718Z,63.25
2019-04-22T04:27:50.839Z,63.07
2019-04-22T04:34:43.351Z,62.20
2019-04-22T04:35:43.363Z,61.79
2019-04-22T04:37:40.848Z,62.02
2019-04-22T04:38:21.196Z,62.23
2019-04-22T04:41:29.083Z,63.39
2019-04-22T04:43:26.074Z,63.59
2019-04-22T04:45:34.614Z,63.41
2019-04-22T04:46:43.391Z,64.64
2019-04-22T04:47:38.891Z,64.95
2019-04-22T04:48:27.662Z,63.41
2019-04-22T04:49:24.101Z,65.05
2019-04-22T04:51:26.876Z,64.74
2019-04-22T04:54:30.212Z,64.54
2019-04-22T04:55:26.678Z,64.43
2019-04-22T04:57:32.025Z,64.03
2019-04-22T04:58:36.886Z,64.33
2019-04-22T05:00:45.917Z,64.33
2019-04-22T05:01:24.618Z,64.74
2019-04-22T05:04:30.523Z,66.07
2019-04-22T05:05:37.196Z,66.07
2019-04-22T05:06:26.003Z,66.72
2019-04-22T05:07:27.802Z,66.20
2019-04-22T05:08:33.005Z,65.63
2019-04-22T05:11:26.105Z,59.68
2019-04-22T05:13:40.002Z,56.52
2019-04-22T05:14:19.226Z,55.99
2019-04-22T05:15:27.297Z,55.66
2019-04-22T05:17:18.545Z,54.74
2019-04-22T05:19:20.809Z,56.19
2019-04-22T05:20:21.443Z,55.30
2019-04-22T05:21:17.954Z,56.24
2019-04-22T05:22:13.220Z,56.34
2019-04-22T05:23:25.761Z,56.98
2019-04-22T05:24:38.462Z,57.11
2019-04-22T05:25:20.576Z,58.94
2019-04-22T05:26:22.106Z,58.97
2019-04-22T05:27:19.686Z,59.38
2019-04-22T05:28:17.834Z,59.81
2019-04-22T05:29:19.467Z,60.05
2019-04-22T05:31:16.304Z,60.55
2019-04-22T05:32:31.038Z,60.25
2019-04-22T05:33:18.720Z,60.66
2019-04-22T05:34:19.900Z,60.35
2019-04-22T05:35:14.369Z,60.55
2019-04-22T05:36:15.809Z,60.22
2019-04-22T05:37:14.589Z,59.30
2019-04-22T05:38:17.194Z,59.61
2019-04-22T05:39:11.419Z,59.00
2019-04-22T05:40:19.963Z,59.68
2019-04-22T05:41:17.946Z,59.48
2019-04-22T05:42:14.028Z,57.75
2019-04-22T05:43:14.043Z,58.23
2019-04-22T05:44:16.267Z,57.31
2019-04-22T05:45:22.983Z,58.00
2019-04-22T05:46:09.525Z,57.49
2019-04-22T05:47:16.355Z,56.88
2019-04-22T05:48:15.754Z,57.39
2019-04-22T05:49:18.286Z,57.08
2019-04-22T05:50:16.365Z,56.95
2019-04-22T05:51:21.733Z,57.16
2019-04-22T05:52:14.929Z,57.97
2019-04-22T05:53:07.138Z,57.77
2019-04-22T05:54:17.321Z,57.46
2019-04-22T05:55:16.345Z,57.06
2019-04-22T05:56:20.677Z,56.75
2019-04-22T05:57:14.265Z,56.24
2019-04-22T05:58:29.342Z,57.36
2019-04-22T05:59:12.513Z,56.95
2019-04-22T06:00:16.278Z,56.85
2019-04-22T06:02:39.428Z,57.56
2019-04-22T06:03:11.650Z,56.65
2019-04-22T06:05:14.929Z,56.85
2019-04-22T06:06:15.073Z,54.90
2019-04-22T06:07:13.411Z,53.65
2019-04-22T06:08:13.227Z,53.63
2019-04-22T06:10:21.423Z,52.81
2019-04-22T06:11:19.801Z,54.21
2019-04-22T06:12:05.005Z,55.12
2019-04-22T06:13:04.735Z,53.30
2019-04-22T06:14:08.446Z,54.31
2019-04-22T06:15:16.301Z,54.11
2019-04-22T06:16:09.281Z,53.70
2019-04-22T06:17:19.935Z,54.00
2019-04-22T06:18:20.486Z,52.99
2019-04-22T06:19:14.301Z,53.98
2019-04-22T06:20:13.719Z,52.76
2019-04-22T06:21:11.364Z,53.67
2019-04-22T06:22:25.503Z,53.17
2019-04-22T06:23:24.179Z,53.06
2019-04-22T06:24:16.635Z,52.23
2019-04-22T06:25:22.691Z,54.36
2019-04-22T06:27:14.563Z,52.00
2019-04-22T06:28:22.261Z,51.19
2019-04-22T06:29:15.931Z,50.59
2019-04-22T06:30:16.364Z,51.37
2019-04-22T06:31:18.661Z,50.96
2019-04-22T06:33:19.198Z,51.95
2019-04-22T06:34:17.711Z,49.22
2019-04-22T06:35:23.597Z,50.13
2019-04-22T06:36:16.139Z,50.43
2019-04-22T06:39:18.448Z,51.86
2019-04-22T06:40:13.439Z,50.84
2019-04-22T06:41:14.015Z,51.02
2019-04-22T06:42:13.744Z,51.62
2019-04-22T06:46:17.097Z,48.97
2019-04-22T06:47:25.219Z,50.18
2019-04-22T06:49:18.805Z,49.15
2019-04-22T06:50:16.923Z,49.25
2019-04-22T06:51:13.398Z,49.35
2019-04-22T06:52:17.750Z,48.95
2019-04-22T06:53:09.182Z,48.74
2019-04-22T06:54:17.595Z,48.24
2019-04-22T06:55:15.170Z,49.43
2019-04-22T06:56:12.582Z,50.44
2019-04-22T06:57:13.424Z,48.82
2019-04-22T06:58:10.907Z,47.31
2019-04-22T06:59:14.854Z,47.51
2019-04-22T07:00:14.343Z,47.59
2019-04-22T07:01:18.201Z,47.69
2019-04-22T07:02:18.104Z,47.49
2019-04-22T07:04:13.777Z,48.07
2019-04-22T07:05:17.953Z,49.38
2019-04-22T07:06:12.755Z,47.87
2019-04-22T07:07:12.700Z,47.06
2019-04-22T07:08:30.363Z,47.14
2019-04-22T07:10:26.463Z,47.44
2019-04-22T07:11:07.857Z,46.53
2019-04-22T07:12:11.538Z,46.13
2019-04-22T07:13:17.543Z,47.32
2019-04-22T07:14:09.052Z,48.83
2019-04-22T07:15:23.168Z,48.22
2019-04-22T07:16:15.347Z,47.82
2019-04-22T07:17:27.571Z,47.32
2019-04-22T07:18:18.387Z,46.69
2019-04-22T07:19:18.579Z,47.19
2019-04-22T07:20:10.668Z,46.49
2019-04-22T07:21:25.981Z,48.81
2019-04-22T07:23:13.865Z,48.89
2019-04-22T07:24:28.260Z,47.38
2019-04-22T07:25:10.164Z,45.76
2019-04-22T07:26:08.879Z,45.76
2019-04-22T07:28:13.963Z,45.84
2019-04-22T07:29:16.456Z,46.25
2019-04-22T07:30:15.178Z,44.93
2019-04-22T07:31:12.914Z,46.45
2019-04-22T07:32:12.946Z,44.81
2019-04-22T07:33:26.246Z,45.82
2019-04-22T07:35:20.449Z,45.50
2019-04-22T07:36:30.909Z,44.59
2019-04-22T07:37:22.701Z,46.38
2019-04-22T07:38:22.633Z,43.96
2019-04-22T07:39:10.836Z,43.95
2019-04-22T07:40:11.847Z,45.05
2019-04-22T07:41:27.017Z,43.72
2019-04-22T07:42:12.535Z,45.53
2019-04-22T07:43:20.180Z,44.53
2019-04-22T07:45:13.134Z,44.51
2019-04-22T07:46:13.530Z,45.51
2019-04-22T07:48:18.957Z,42.27
2019-04-22T07:49:13.236Z,41.59
2019-04-22T07:50:30.766Z,43.88
2019-04-22T07:51:15.466Z,45.29
2019-04-22T07:52:09.965Z,41.96
2019-04-22T07:53:10.281Z,44.74
2019-04-22T07:54:16.425Z,43.64
2019-04-22T07:55:05.599Z,42.03
2019-04-22T07:56:16.242Z,43.62
2019-04-22T07:59:15.174Z,42.80
2019-04-22T08:00:16.041Z,43.90
2019-04-22T08:01:13.973Z,43.08
2019-04-22T08:02:10.415Z,42.68
2019-04-22T08:04:30.266Z,39.73
2019-04-22T08:05:13.633Z,42.21
2019-04-22T08:07:12.367Z,40.06
2019-04-22T08:08:20.081Z,41.74
2019-04-22T08:09:16.015Z,39.50
2019-04-22T08:10:17.022Z,39.76
2019-04-22T08:11:22.467Z,38.33
2019-04-22T08:12:02.505Z,39.59
2019-04-22T08:13:11.726Z,37.45
2019-04-22T08:14:14.680Z,36.61
2019-04-22T08:15:12.567Z,34.43
2019-04-22T08:16:10.324Z,35.69
2019-04-22T08:18:12.246Z,34.17
2019-04-22T08:19:15.502Z,34.23
2019-04-22T08:20:18.785Z,34.08
2019-04-22T08:21:13.590Z,33.98
2019-04-22T08:22:07.973Z,34.27
2019-04-22T08:23:17.865Z,32.09
2019-04-22T08:24:28.611Z,33.20
2019-04-22T08:25:10.070Z,34.76
2019-04-22T08:26:16.780Z,35.71
2019-04-22T08:27:11.887Z,32.45
2019-04-22T08:28:13.338Z,30.37
2019-04-22T08:29:14.819Z,30.07
2019-04-22T08:30:14.355Z,30.47
2019-04-22T08:31:14.853Z,31.67
2019-04-22T08:32:15.204Z,32.57
2019-04-22T08:33:15.693Z,33.36
2019-04-22T08:34:14.985Z,30.20
2019-04-22T08:35:18.454Z,31.07
2019-04-22T08:36:18.387Z,30.98
2019-04-22T08:38:14.679Z,30.26
2019-04-22T08:39:14.104Z,32.90
2019-04-22T08:40:15.007Z,30.34
2019-04-22T08:41:18.163Z,32.21
2019-04-22T08:42:17.957Z,29.35
2019-04-22T08:44:17.360Z,32.01
2019-04-22T08:45:14.335Z,29.55
2019-04-22T08:46:21.653Z,29.94
2019-04-22T08:47:21.553Z,32.59
2019-04-22T08:48:07.970Z,31.60
2019-04-22T08:49:23.222Z,29.93
2019-04-22T08:51:15.144Z,30.62
2019-04-22T08:52:18.654Z,29.94
2019-04-22T08:53:14.211Z,31.31
2019-04-22T08:54:11.862Z,31.73
2019-04-22T08:55:12.698Z,32.32
2019-04-22T08:56:24.060Z,34.06
2019-04-22T08:57:15.982Z,35.17
2019-04-22T09:00:08.448Z,32.39
2019-04-22T09:01:13.660Z,31.39
2019-04-22T09:02:16.349Z,31.49
2019-04-22T09:03:11.049Z,32.95
2019-04-22T09:04:08.489Z,33.38
2019-04-22T09:05:20.432Z,32.01
2019-04-22T09:06:19.863Z,32.98
2019-04-22T09:08:14.159Z,31.79
2019-04-22T09:09:26.434Z,30.63
2019-04-22T09:10:15.153Z,31.42
2019-04-22T09:11:16.472Z,30.66
2019-04-22T09:12:20.102Z,30.34
2019-04-22T09:13:14.397Z,28.85
2019-04-22T09:14:22.571Z,27.95
2019-04-22T09:15:16.691Z,26.88
2019-04-22T09:16:17.184Z,28.16
2019-04-22T09:17:14.781Z,29.75
2019-04-22T09:18:14.310Z,29.57
2019-04-22T09:19:12.306Z,29.74
2019-04-22T09:20:13.230Z,28.13
2019-04-22T09:22:13.039Z,28.05
2019-04-22T09:23:14.985Z,28.26
2019-04-22T09:24:10.297Z,28.37
2019-04-22T09:25:06.698Z,29.21
2019-04-22T09:26:10.707Z,28.33
2019-04-22T09:27:22.663Z,27.36
2019-04-22T09:28:15.236Z,27.57
2019-04-22T09:29:12.770Z,28.55
2019-04-22T09:30:15.105Z,26.19
2019-04-22T09:31:11.399Z,25.10
2019-04-22T09:32:16.096Z,27.66
2019-04-22T09:33:14.077Z,27.15
2019-04-22T09:34:06.778Z,26.57
2019-04-22T09:35:09.762Z,28.27
2019-04-22T09:36:16.824Z,26.31
2019-04-22T09:38:28.156Z,25.49
2019-04-22T09:39:10.729Z,27.09
2019-04-22T09:40:22.344Z,27.78
2019-04-22T09:41:16.132Z,26.71
2019-04-22T09:42:11.526Z,26.62
2019-04-22T09:43:17.171Z,27.30
2019-04-22T09:44:09.407Z,26.15
2019-04-22T09:45:13.169Z,27.44
2019-04-22T09:46:19.690Z,27.03
2019-04-22T09:47:16.559Z,25.62
2019-04-22T09:48:16.678Z,28.16
2019-04-22T09:49:23.778Z,25.77
2019-04-22T09:50:09.894Z,25.29
2019-04-22T09:51:11.597Z,25.43
2019-04-22T09:52:13.083Z,25.56
2019-04-22T09:53:08.357Z,27.26
2019-04-22T09:54:17.945Z,30.30
2019-04-22T09:55:15.393Z,29.19
2019-04-22T09:56:09.773Z,25.83
2019-04-22T09:57:08.980Z,26.73
2019-04-22T09:58:13.492Z,26.09
2019-04-22T09:59:07.723Z,27.56
2019-04-22T10:00:13.987Z,26.87
2019-04-22T10:01:18.699Z,27.24
2019-04-22T10:03:16.036Z,26.94
2019-04-22T10:04:06.443Z,29.03
2019-04-22T10:05:15.111Z,26.17
2019-04-22T10:06:16.528Z,28.07
2019-04-22T10:07:17.622Z,28.76
2019-04-22T10:08:18.284Z,29.25
2019-04-22T10:11:13.422Z,27.23
2019-04-22T10:12:10.164Z,29.20
2019-04-22T10:13:12.865Z,28.42
2019-04-22T10:14:16.942Z,27.55
2019-04-22T10:15:06.451Z,31.08
2019-04-22T10:16:15.426Z,27.63
2019-04-22T10:17:07.786Z,29.65
2019-04-22T10:18:09.332Z,30.86
2019-04-22T10:19:11.088Z,32.14
2019-04-22T10:20:10.218Z,29.54
2019-04-22T10:21:14.482Z,30.73
2019-04-22T10:22:14.957Z,33.11
2019-04-22T10:23:17.670Z,30.73
2019-04-22T10:24:09.190Z,30.53
2019-04-22T10:25:10.453Z,31.32
2019-04-22T10:26:12.986Z,28.96
2019-04-22T10:27:08.158Z,31.45
2019-04-22T10:28:15.658Z,29.37
2019-04-22T10:29:14.072Z,30.66
2019-04-22T10:30:15.116Z,31.35
2019-04-22T10:31:09.947Z,33.52
2019-04-22T10:32:07.058Z,30.44
2019-04-22T10:33:08.799Z,31.84
2019-04-22T10:33:58.498Z,30.05
2019-04-22T10:34:51.230Z,29.77
2019-04-22T10:35:45.630Z,29.67
2019-04-22T10:36:50.453Z,29.68
2019-04-22T10:37:45.987Z,33.75
2019-04-22T10:38:44.534Z,29.17
2019-04-22T10:39:51.306Z,30.07
2019-04-22T10:40:44.891Z,30.07
2019-04-22T10:41:44.299Z,29.86
2019-04-22T10:42:45.170Z,28.89
2019-04-22T10:43:43.768Z,32.06
2019-04-22T10:44:45.215Z,32.15
2019-04-22T10:45:44.002Z,35.60
2019-04-22T10:46:44.359Z,32.31
2019-04-22T10:47:43.700Z,33.31
2019-04-22T10:48:44.256Z,31.11
2019-04-22T10:49:44.483Z,31.21
2019-04-22T10:50:43.639Z,31.20
2019-04-22T10:51:44.494Z,29.71
2019-04-22T10:52:43.642Z,29.23
2019-04-22T10:53:43.837Z,29.52
2019-04-22T10:54:43.652Z,32.10
2019-04-22T10:55:45.288Z,30.02
2019-04-22T10:56:43.582Z,29.34
2019-04-22T10:57:44.395Z,28.86
2019-04-22T10:58:44.641Z,33.12
2019-04-22T10:59:44.749Z,29.36
2019-04-22T11:00:43.542Z,29.47
2019-04-22T11:01:44.429Z,30.05
2019-04-22T11:02:43.795Z,31.04
2019-04-22T11:03:43.519Z,28.66
2019-04-22T11:04:43.977Z,29.25
2019-04-22T11:05:44.317Z,29.74
2019-04-22T11:06:52.362Z,28.05
2019-04-22T11:07:53.289Z,28.15
2019-04-22T11:08:52.334Z,27.64
2019-04-22T11:09:54.439Z,27.33
2019-04-22T11:11:00.638Z,29.28
2019-04-22T11:11:51.087Z,27.87
2019-04-22T11:12:45.194Z,29.65
2019-04-22T11:13:44.124Z,26.35
2019-04-22T11:14:43.433Z,28.28
2019-04-22T11:15:44.607Z,24.13
2019-04-22T11:16:43.631Z,27.10
2019-04-22T11:17:43.824Z,25.72
2019-04-22T11:18:43.465Z,25.52
2019-04-22T11:19:43.580Z,26.72
2019-04-22T11:20:44.010Z,30.48
2019-04-22T11:21:44.663Z,31.17
2019-04-22T11:22:44.647Z,31.10
2019-04-22T11:23:44.671Z,30.81
2019-04-22T11:24:44.356Z,32.03
2019-04-22T11:25:43.930Z,34.13
2019-04-22T11:26:43.298Z,34.86
2019-04-22T11:27:44.398Z,33.67
2019-04-22T11:28:43.484Z,34.76
2019-04-22T11:29:43.599Z,34.78
2019-04-22T11:30:44.606Z,34.78
2019-04-22T11:31:44.343Z,32.61
2019-04-22T11:32:44.499Z,35.09
2019-04-22T11:33:44.459Z,35.58
2019-04-22T11:34:43.210Z,34.30
2019-04-22T11:35:43.801Z,33.80
2019-04-22T11:36:43.213Z,34.10
2019-04-22T11:37:43.203Z,33.90
2019-04-22T11:38:47.141Z,34.28
2019-04-22T11:39:48.155Z,36.15
2019-04-22T11:40:49.943Z,35.16
2019-04-22T11:41:46.313Z,33.36
2019-04-22T11:42:44.101Z,32.37
2019-04-22T11:43:43.216Z,32.75
2019-04-22T11:44:43.554Z,33.41
2019-04-22T11:45:43.080Z,34.95
2019-04-22T11:46:43.269Z,32.16
2019-04-22T11:47:43.328Z,28.99
2019-04-22T11:48:43.059Z,30.27
2019-04-22T11:49:43.898Z,33.53
2019-04-22T11:50:43.973Z,30.94
2019-04-22T11:51:43.031Z,29.85
2019-04-22T11:52:43.028Z,32.01
2019-04-22T11:53:42.990Z,29.46
2019-04-22T11:54:43.268Z,29.57
2019-04-22T11:55:42.977Z,30.35
2019-04-22T11:56:43.076Z,30.26
2019-04-22T11:57:43.054Z,31.45
2019-04-22T11:58:42.949Z,29.47
2019-04-22T11:59:42.942Z,29.57
2019-04-22T12:00:43.240Z,30.96
2019-04-22T12:01:42.934Z,32.70
2019-04-22T12:02:43.079Z,31.80
2019-04-22T12:03:44.199Z,32.48
2019-04-22T12:04:43.598Z,30.02
2019-04-22T12:05:43.914Z,29.72
2019-04-22T12:06:44.072Z,29.63
2019-04-22T12:07:42.877Z,30.65
2019-04-22T12:08:43.722Z,31.44
2019-04-22T12:09:43.643Z,30.54
2019-04-22T12:10:50.606Z,31.41
2019-04-22T12:11:44.434Z,28.86
2019-04-22T12:12:44.810Z,31.73
2019-04-22T12:13:44.080Z,30.24
2019-04-22T12:14:42.805Z,30.43
2019-04-22T12:15:42.860Z,31.09
2019-04-22T12:16:43.901Z,29.71
2019-04-22T12:17:42.783Z,28.42
2019-04-22T12:18:43.062Z,30.21
2019-04-22T12:19:44.221Z,29.82
2019-04-22T12:20:43.356Z,30.91
2019-04-22T12:21:42.769Z,31.72
2019-04-22T12:22:42.963Z,30.65
2019-04-22T12:23:43.434Z,30.27
2019-04-22T12:24:42.697Z,30.07
2019-04-22T12:25:51.668Z,30.94
2019-04-22T12:26:44.212Z,29.88
2019-04-22T12:27:43.113Z,30.09
2019-04-22T12:28:42.676Z,30.58
2019-04-22T12:29:42.972Z,29.89
2019-04-22T12:30:43.518Z,29.21
2019-04-22T12:31:42.634Z,30.47
2019-04-22T12:32:43.563Z,30.37
2019-04-22T12:33:43.398Z,32.60
2019-04-22T12:34:43.672Z,31.42
2019-04-22T12:35:42.592Z,31.70
2019-04-22T12:36:42.759Z,32.57
2019-04-22T12:37:49.906Z,31.79
2019-04-22T12:38:44.990Z,30.21
2019-04-22T12:39:45.293Z,27.57
2019-04-22T12:40:51.195Z,29.07
2019-04-22T12:41:44.336Z,28.97
2019-04-22T12:42:42.944Z,27.70
2019-04-22T12:43:43.249Z,29.69
2019-04-22T12:44:44.110Z,28.61
2019-04-22T12:45:42.562Z,30.38
2019-04-22T12:46:43.672Z,30.26
2019-04-22T12:47:42.474Z,29.60
2019-04-22T12:48:43.387Z,31.45
2019-04-22T12:49:46.056Z,28.00
2019-04-22T12:50:44.471Z,30.48
2019-04-22T12:51:42.960Z,27.83
2019-04-22T12:52:50.529Z,30.68
2019-04-22T12:53:44.583Z,28.61
2019-04-22T12:54:42.654Z,30.68
2019-04-22T12:55:43.586Z,29.38
2019-04-22T12:56:43.864Z,29.19
2019-04-22T12:57:42.822Z,29.66
2019-04-22T12:58:43.395Z,29.06
2019-04-22T12:59:43.638Z,27.19
2019-04-22T13:00:44.589Z,28.27
2019-04-22T13:01:42.685Z,28.38
2019-04-22T13:02:43.116Z,32.01
2019-04-22T13:03:42.663Z,29.76
2019-04-22T13:04:43.460Z,29.09
2019-04-22T13:05:53.870Z,30.86
2019-04-22T13:06:44.024Z,30.85
2019-04-22T13:07:44.185Z,28.38
2019-04-22T13:08:43.578Z,28.99
2019-04-22T13:09:43.298Z,29.78
2019-04-22T13:10:53.698Z,30.35
2019-04-22T13:11:45.872Z,28.21
2019-04-22T13:12:42.821Z,30.86
2019-04-22T13:13:42.867Z,29.99
2019-04-22T13:14:43.337Z,30.48
2019-04-22T13:15:42.441Z,28.91
2019-04-22T13:16:42.931Z,29.78
2019-04-22T13:17:44.213Z,31.96
2019-04-22T13:18:50.255Z,30.57
2019-04-22T13:19:44.345Z,30.37
2019-04-22T13:20:42.217Z,29.28
2019-04-22T13:21:42.760Z,29.20
2019-04-22T13:22:43.022Z,29.10
2019-04-22T13:23:42.136Z,28.51
2019-04-22T13:24:42.100Z,29.78
2019-04-22T13:25:42.922Z,30.17
2019-04-22T13:26:43.068Z,27.42
2019-04-22T13:27:42.885Z,29.03
2019-04-22T13:28:43.199Z,30.50
2019-04-22T13:29:43.482Z,29.79
2019-04-22T13:30:42.034Z,31.17
2019-04-22T13:31:42.494Z,32.54
2019-04-22T13:32:42.981Z,27.11
2019-04-22T13:33:43.061Z,29.20
2019-04-22T13:34:46.625Z,27.72
2019-04-22T13:35:47.810Z,29.19
2019-04-22T13:36:44.652Z,28.30
2019-04-22T13:37:43.446Z,29.38
2019-04-22T13:38:44.899Z,28.59
2019-04-22T13:39:43.197Z,30.45
2019-04-22T13:40:59.530Z,30.45
2019-04-22T13:41:49.825Z,30.75
2019-04-22T13:42:42.925Z,28.38
2019-04-22T13:43:42.907Z,31.73
2019-04-22T13:44:41.909Z,31.72
2019-04-22T13:45:41.909Z,30.88
2019-04-22T13:47:02.120Z,29.11
2019-04-22T13:49:09.637Z,30.69
2019-04-22T13:50:17.209Z,28.14
2019-04-22T13:52:22.621Z,30.32
2019-04-22T13:53:22.088Z,29.64
2019-04-22T13:54:14.047Z,29.32
2019-04-22T13:54:40.716Z,30.82
2019-04-22T13:55:13.656Z,29.36
2019-04-22T13:56:05.572Z,29.47
2019-04-22T13:57:01.672Z,31.74
2019-04-22T13:58:02.614Z,29.93
2019-04-22T13:58:58.901Z,29.64
2019-04-22T13:59:46.965Z,29.74
2019-04-22T14:00:42.764Z,29.54
2019-04-22T14:01:43.052Z,31.48
2019-04-22T14:02:42.569Z,29.13
2019-04-22T14:03:42.825Z,30.13
2019-04-22T14:04:42.930Z,29.54
2019-04-22T14:05:42.622Z,30.04
2019-04-22T14:06:42.876Z,30.44
2019-04-22T14:07:43.083Z,29.14
2019-04-22T14:08:43.026Z,28.45
2019-04-22T14:09:42.296Z,30.05
2019-04-22T14:10:42.793Z,29.34
2019-04-22T14:11:49.705Z,28.35
2019-04-22T14:12:42.732Z,28.85
2019-04-22T14:13:41.941Z,28.65
2019-04-22T14:14:42.810Z,29.54
2019-04-22T14:15:42.268Z,30.34
2019-04-22T14:16:42.788Z,32.12
2019-04-22T14:17:43.216Z,29.95
2019-04-22T14:18:44.250Z,30.33
2019-04-22T14:19:42.354Z,29.83
2019-04-22T14:20:42.806Z,29.34
2019-04-22T14:21:44.265Z,27.97
2019-04-22T14:22:44.302Z,29.77
2019-04-22T14:23:42.563Z,29.58
2019-04-22T14:24:42.685Z,29.77
2019-04-22T14:25:43.002Z,28.28
2019-04-22T14:26:54.966Z,29.68
2019-04-22T14:27:51.118Z,30.16
2019-04-22T14:28:43.750Z,29.38